Time;durP1;ratioP1;P1;durP2;ratioP2;P2;SDS_P1;SDS_P2;PMS_P1;PMS_P2;Temp;Humidity;BMP_temperature;BMP_pressure;BME280_temperature;BME280_humidity;BME280_pressure;Samples;Min_cycle;Max_cycle;Signal;HPM_P1;HPM_P2
2022/09/25 00:01:22;;;;;;;28.48;16.23;;;;;;;;;;7390028;19;20330;-70
2022/09/25 00:03:48;;;;;;;30.33;16.60;;;;;;;;;;7387665;19;20023;-70
2022/09/25 00:06:17;;;;;;;29.42;16.08;;;;;;;;;;7388575;19;20003;-70
2022/09/25 00:08:43;;;;;;;32.42;16.73;;;;;;;;;;7391330;19;20003;-69
2022/09/25 00:11:17;;;;;;;29.27;16.17;;;;;;;;;;7389884;19;20010;-70
2022/09/25 00:13:43;;;;;;;34.08;16.70;;;;;;;;;;7390346;19;20013;-71
2022/09/25 00:16:10;;;;;;;28.67;16.50;;;;;;;;;;7389997;19;20010;-70
2022/09/25 00:21:20;;;;;;;28.67;15.80;;;;;;;;;;7389025;19;20344;-70
2022/09/25 00:23:46;;;;;;;25.73;15.10;;;;;;;;;;7389511;19;20007;-70
2022/09/25 00:26:13;;;;;;;26.50;14.75;;;;;;;;;;7388108;19;19995;-68
2022/09/25 00:28:39;;;;;;;30.27;16.33;;;;;;;;;;7388040;19;20009;-71
2022/09/25 00:31:07;;;;;;;25.83;16.23;;;;;;;;;;7389015;19;20002;-71
2022/09/25 00:33:34;;;;;;;30.33;16.27;;;;;;;;;;7389058;19;20070;-72
2022/09/25 00:36:05;;;;;;;31.27;16.63;;;;;;;;;;7389100;19;20003;-70
2022/09/25 00:38:31;;;;;;;30.52;16.88;;;;;;;;;;7392176;19;20032;-71
2022/09/25 00:40:57;;;;;;;29.08;16.27;;;;;;;;;;7388710;19;19999;-70
2022/09/25 00:43:40;;;;;;;30.85;17.90;;;;;;;;;;7388456;19;20006;-70
2022/09/25 00:46:18;;;;;;;29.02;15.88;;;;;;;;;;7382999;19;20015;-70
2022/09/25 00:48:50;;;;;;;32.42;15.75;;;;;;;;;;7380878;19;20500;-70
2022/09/25 00:51:19;;;;;;;28.73;16.23;;;;;;;;;;7383788;19;20009;-70
2022/09/25 00:53:45;;;;;;;33.70;16.90;;;;;;;;;;7384740;19;20466;-70
2022/09/25 00:56:12;;;;;;;29.27;15.85;;;;;;;;;;7381900;19;20010;-70
2022/09/25 00:58:39;;;;;;;29.42;16.33;;;;;;;;;;7383879;19;20463;-70
2022/09/25 01:01:05;;;;;;;29.60;16.63;;;;;;;;;;7382700;19;20356;-70
2022/09/25 01:03:32;;;;;;;30.23;16.00;;;;;;;;;;7387591;19;20070;-70
2022/09/25 01:05:59;;;;;;;28.58;15.70;;;;;;;;;;7387055;19;20009;-70
2022/09/25 01:08:26;;;;;;;26.98;15.88;;;;;;;;;;7387047;19;20023;-70
2022/09/25 01:10:52;;;;;;;34.88;16.92;;;;;;;;;;7387784;19;20439;-70
2022/09/25 01:13:18;;;;;;;32.55;17.02;;;;;;;;;;7386674;19;20617;-70
2022/09/25 01:15:58;;;;;;;34.05;17.48;;;;;;;;;;7387856;19;20006;-70
2022/09/25 01:18:46;;;;;;;29.15;16.48;;;;;;;;;;7386683;19;20204;-70
2022/09/25 01:21:20;;;;;;;28.52;16.10;;;;;;;;;;7387285;19;20010;-70
2022/09/25 01:23:54;;;;;;;30.65;17.08;;;;;;;;;;7387636;19;20369;-70
2022/09/25 01:26:44;;;;;;;31.10;16.83;;;;;;;;;;7386390;19;20408;-70
2022/09/25 01:29:09;;;;;;;32.40;18.65;;;;;;;;;;7386361;19;20003;-71
2022/09/25 01:31:47;;;;;;;27.53;16.17;;;;;;;;;;7386747;19;20002;-71
2022/09/25 01:34:19;;;;;;;25.80;16.30;;;;;;;;;;7387364;19;20252;-71
2022/09/25 01:36:57;;;;;;;29.17;16.52;;;;;;;;;;7387625;19;20495;-70
2022/09/25 01:39:34;;;;;;;27.55;15.85;;;;;;;;;;7386010;19;20110;-71
2022/09/25 01:42:15;;;;;;;27.67;17.20;;;;;;;;;;7386199;19;19998;-70
2022/09/25 01:44:55;;;;;;;26.92;16.45;;;;;;;;;;7387779;19;20006;-71
2022/09/25 01:47:25;;;;;;;27.65;15.98;;;;;;;;;;7387786;19;20040;-70
2022/09/25 01:49:57;;;;;;;27.92;15.85;;;;;;;;;;7387638;19;20006;-71
2022/09/25 01:52:39;;;;;;;29.45;16.20;;;;;;;;;;7385877;19;20020;-72
2022/09/25 01:55:21;;;;;;;26.25;15.82;;;;;;;;;;7387633;19;20006;-70
2022/09/25 01:57:55;;;;;;;30.35;15.05;;;;;;;;;;7384070;19;20011;-70
2022/09/25 02:00:22;;;;;;;28.58;17.38;;;;;;;;;;7389156;19;20013;-71
2022/09/25 02:02:54;;;;;;;28.88;16.50;;;;;;;;;;7385578;19;20009;-70
2022/09/25 02:05:29;;;;;;;29.27;16.80;;;;;;;;;;7388529;19;19999;-72
2022/09/25 02:08:07;;;;;;;32.15;17.40;;;;;;;;;;7392919;19;20066;-71
2022/09/25 02:10:38;;;;;;;29.90;17.27;;;;;;;;;;7393697;19;20003;-71
2022/09/25 02:13:11;;;;;;;30.88;17.23;;;;;;;;;;7393530;19;20078;-71
2022/09/25 02:15:42;;;;;;;31.45;16.88;;;;;;;;;;7394795;19;19999;-70
2022/09/25 02:21:13;;;;;;;30.83;17.45;;;;;;;;;;7394155;19;20361;-70
2022/09/25 02:23:53;;;;;;;32.60;16.38;;;;;;;;;;7394037;19;20003;-71
2022/09/25 02:26:26;;;;;;;31.20;17.67;;;;;;;;;;7392052;19;20661;-70
2022/09/25 02:28:52;;;;;;;34.42;18.42;;;;;;;;;;7390305;19;20472;-71
2022/09/25 02:31:20;;;;;;;30.75;17.08;;;;;;;;;;7392806;19;20465;-70
2022/09/25 02:33:46;;;;;;;31.80;16.85;;;;;;;;;;7393419;19;20010;-71
2022/09/25 02:36:18;;;;;;;32.35;16.58;;;;;;;;;;7391396;19;20391;-70
2022/09/25 02:38:44;;;;;;;34.35;16.95;;;;;;;;;;7391181;19;20376;-70
2022/09/25 02:41:47;;;;;;;35.20;17.40;;;;;;;;;;7392697;19;20005;-71
2022/09/25 02:44:54;;;;;;;33.40;15.75;;;;;;;;;;7393044;19;20003;-70
2022/09/25 02:47:49;;;;;;;33.70;16.83;;;;;;;;;;7391377;19;20003;-70
2022/09/25 02:50:26;;;;;;;31.25;16.50;;;;;;;;;;7392821;19;20005;-71
2022/09/25 02:53:16;;;;;;;32.90;16.13;;;;;;;;;;7392242;19;20010;-70
2022/09/25 02:55:53;;;;;;;34.42;16.90;;;;;;;;;;7391071;19;20028;-70
2022/09/25 02:58:37;;;;;;;35.58;17.35;;;;;;;;;;7391286;19;20478;-71
2022/09/25 03:01:05;;;;;;;27.95;16.00;;;;;;;;;;7392097;19;20107;-71
2022/09/25 03:03:32;;;;;;;31.70;16.75;;;;;;;;;;7391948;19;20114;-70
2022/09/25 03:05:59;;;;;;;36.08;17.10;;;;;;;;;;7388532;19;20017;-71
2022/09/25 03:08:40;;;;;;;35.45;16.83;;;;;;;;;;7388809;19;20591;-71
2022/09/25 03:11:18;;;;;;;34.72;16.92;;;;;;;;;;7389605;19;20006;-70
2022/09/25 03:13:44;;;;;;;33.17;16.23;;;;;;;;;;7390311;19;20023;-70
2022/09/25 03:16:34;;;;;;;34.90;17.33;;;;;;;;;;7391824;19;20350;-70
2022/09/25 03:19:01;;;;;;;36.25;18.08;;;;;;;;;;7387635;19;20074;-70
2022/09/25 03:21:26;;;;;;;33.30;16.77;;;;;;;;;;7388939;19;20012;-71
2022/09/25 03:23:51;;;;;;;33.65;17.13;;;;;;;;;;7391810;19;20095;-70
2022/09/25 03:26:17;;;;;;;37.92;18.17;;;;;;;;;;7389547;19;20002;-71
2022/09/25 03:28:42;;;;;;;40.75;17.50;;;;;;;;;;7389837;19;20104;-71
2022/09/25 03:31:10;;;;;;;35.30;17.98;;;;;;;;;;7390908;19;20009;-71
2022/09/25 03:33:38;;;;;;;32.75;17.17;;;;;;;;;;7391141;19;20003;-70
2022/09/25 03:36:06;;;;;;;33.97;16.80;;;;;;;;;;7391817;19;20465;-70
2022/09/25 03:38:32;;;;;;;36.53;16.50;;;;;;;;;;7389385;19;20028;-70
2022/09/25 03:40:57;;;;;;;34.53;17.23;;;;;;;;;;7391039;19;20101;-69
2022/09/25 03:43:23;;;;;;;34.30;16.77;;;;;;;;;;7391915;19;20003;-70
2022/09/25 03:45:48;;;;;;;35.55;16.80;;;;;;;;;;7390251;19;20106;-71
2022/09/25 03:48:13;;;;;;;33.47;17.08;;;;;;;;;;7390642;19;19999;-71
2022/09/25 03:50:39;;;;;;;32.10;17.55;;;;;;;;;;7391848;19;20490;-70
2022/09/25 03:53:04;;;;;;;33.03;16.60;;;;;;;;;;7389504;19;19999;-71
2022/09/25 03:55:30;;;;;;;34.28;17.13;;;;;;;;;;7391802;19;20412;-71
2022/09/25 03:57:55;;;;;;;35.42;17.38;;;;;;;;;;7389643;19;19995;-71
2022/09/25 04:00:22;;;;;;;31.45;16.58;;;;;;;;;;7389098;19;20006;-72
2022/09/25 04:02:48;;;;;;;31.60;17.35;;;;;;;;;;7392035;19;20385;-71
2022/09/25 04:05:14;;;;;;;31.40;17.08;;;;;;;;;;7390453;19;20035;-72
2022/09/25 04:07:40;;;;;;;32.97;16.55;;;;;;;;;;7388883;19;20096;-71
2022/09/25 04:10:05;;;;;;;30.02;16.85;;;;;;;;;;7390476;19;20003;-72
2022/09/25 04:12:31;;;;;;;29.90;16.45;;;;;;;;;;7390040;19;20472;-71
2022/09/25 04:14:57;;;;;;;33.20;17.00;;;;;;;;;;7390063;19;19999;-71
2022/09/25 04:17:22;;;;;;;30.27;16.92;;;;;;;;;;7389511;19;20465;-70
2022/09/25 04:19:48;;;;;;;29.98;17.10;;;;;;;;;;7388706;19;20003;-72
2022/09/25 04:22:13;;;;;;;30.77;16.98;;;;;;;;;;7387610;19;20006;-72
2022/09/25 04:24:47;;;;;;;28.42;16.23;;;;;;;;;;7388874;19;20003;-71
2022/09/25 04:27:13;;;;;;;28.63;16.52;;;;;;;;;;7390541;19;20529;-69
2022/09/25 04:29:39;;;;;;;30.55;16.25;;;;;;;;;;7387122;19;20039;-72
2022/09/25 04:34:48;;;;;;;29.20;16.33;;;;;;;;;;7388343;19;20010;-72
2022/09/25 04:37:14;;;;;;;33.53;16.85;;;;;;;;;;7389230;19;20015;-70
2022/09/25 04:39:39;;;;;;;30.17;15.35;;;;;;;;;;7387551;19;20013;-72
2022/09/25 04:42:05;;;;;;;33.78;16.92;;;;;;;;;;7386907;19;20409;-71
2022/09/25 04:44:30;;;;;;;30.10;16.73;;;;;;;;;;7387245;19;20016;-71
2022/09/25 04:46:56;;;;;;;31.63;17.33;;;;;;;;;;7387175;19;20001;-71
2022/09/25 04:49:21;;;;;;;36.60;17.55;;;;;;;;;;7387789;19;20003;-71
2022/09/25 04:51:46;;;;;;;34.10;17.23;;;;;;;;;;7384350;19;19998;-70
2022/09/25 04:54:13;;;;;;;28.70;16.15;;;;;;;;;;7388157;19;19998;-71
2022/09/25 04:56:39;;;;;;;29.30;15.50;;;;;;;;;;7388319;19;20094;-72
2022/09/25 04:59:04;;;;;;;32.45;16.30;;;;;;;;;;7387261;19;19998;-71
2022/09/25 05:01:29;;;;;;;31.45;16.75;;;;;;;;;;7387804;19;19998;-70
2022/09/25 05:03:55;;;;;;;33.55;18.02;;;;;;;;;;7387061;19;20076;-72
2022/09/25 05:06:21;;;;;;;33.45;17.45;;;;;;;;;;7387025;19;20402;-72
2022/09/25 05:08:51;;;;;;;36.13;18.50;;;;;;;;;;7387534;19;20007;-73
2022/09/25 05:11:16;;;;;;;34.13;17.92;;;;;;;;;;7387892;19;20005;-72
2022/09/25 05:13:45;;;;;;;30.85;17.05;;;;;;;;;;7386094;19;20399;-72
2022/09/25 05:16:11;;;;;;;35.47;17.92;;;;;;;;;;7391722;19;19994;-71
2022/09/25 05:18:36;;;;;;;37.80;17.73;;;;;;;;;;7391081;19;19999;-72
2022/09/25 05:21:03;;;;;;;32.67;17.17;;;;;;;;;;7388856;19;20075;-71
2022/09/25 05:23:29;;;;;;;34.92;17.15;;;;;;;;;;7391651;19;19994;-72
2022/09/25 05:25:57;;;;;;;38.30;16.50;;;;;;;;;;7387509;19;20010;-71
2022/09/25 05:28:23;;;;;;;33.47;16.27;;;;;;;;;;7387467;19;20009;-71
2022/09/25 05:30:49;;;;;;;38.25;17.30;;;;;;;;;;7388194;19;19998;-72
2022/09/25 05:33:14;;;;;;;34.40;18.00;;;;;;;;;;7387279;19;20469;-72
2022/09/25 05:35:39;;;;;;;37.75;18.45;;;;;;;;;;7386094;19;19999;-71
2022/09/25 05:38:07;;;;;;;35.20;17.55;;;;;;;;;;7387065;19;20206;-71
2022/09/25 05:40:33;;;;;;;30.08;16.40;;;;;;;;;;7389076;19;20001;-71
2022/09/25 05:42:58;;;;;;;33.28;16.90;;;;;;;;;;7387928;19;19999;-71
2022/09/25 05:45:24;;;;;;;32.42;17.05;;;;;;;;;;7389599;19;19998;-71
2022/09/25 05:48:00;;;;;;;35.30;17.25;;;;;;;;;;7387695;19;19990;-72
2022/09/25 05:50:25;;;;;;;33.97;17.58;;;;;;;;;;7385126;19;19999;-72
2022/09/25 05:52:56;;;;;;;32.58;17.38;;;;;;;;;;7385311;19;20010;-71
2022/09/25 05:55:21;;;;;;;35.23;17.63;;;;;;;;;;7387199;19;19998;-72
2022/09/25 05:57:46;;;;;;;32.60;16.67;;;;;;;;;;7381107;19;20263;-70
2022/09/25 06:00:12;;;;;;;31.70;15.02;;;;;;;;;;7385477;19;20019;-72
2022/09/25 06:02:38;;;;;;;35.33;16.98;;;;;;;;;;7376737;19;20006;-69
2022/09/25 06:05:04;;;;;;;36.95;16.90;;;;;;;;;;7382680;19;19999;-71
2022/09/25 06:07:29;;;;;;;33.53;17.25;;;;;;;;;;7376671;19;20094;-70
2022/09/25 06:09:54;;;;;;;32.78;16.27;;;;;;;;;;7380325;19;20031;-70
2022/09/25 06:12:21;;;;;;;29.48;16.33;;;;;;;;;;7377767;19;20013;-70
2022/09/25 06:14:47;;;;;;;25.17;14.35;;;;;;;;;;7385756;19;19998;-70
2022/09/25 06:17:13;;;;;;;21.77;11.40;;;;;;;;;;7381829;19;20071;-72
2022/09/25 06:19:38;;;;;;;20.27;10.95;;;;;;;;;;7384595;19;20114;-72
2022/09/25 06:22:03;;;;;;;19.85;11.98;;;;;;;;;;7387211;19;20014;-69
2022/09/25 06:24:29;;;;;;;18.17;10.65;;;;;;;;;;7383125;19;20002;-70
2022/09/25 06:26:54;;;;;;;14.88;9.57;;;;;;;;;;7382525;19;20006;-70
2022/09/25 06:29:20;;;;;;;19.65;10.85;;;;;;;;;;7381979;19;20003;-68
2022/09/25 06:31:45;;;;;;;19.95;11.45;;;;;;;;;;7383886;19;19999;-69
2022/09/25 06:34:11;;;;;;;17.65;9.85;;;;;;;;;;7384803;19;20018;-71
2022/09/25 06:36:36;;;;;;;17.42;9.43;;;;;;;;;;7385081;19;20011;-70
2022/09/25 06:39:02;;;;;;;16.30;10.10;;;;;;;;;;7380944;19;20006;-69
2022/09/25 06:41:28;;;;;;;21.50;10.43;;;;;;;;;;7378625;19;20014;-70
2022/09/25 06:43:54;;;;;;;18.27;10.15;;;;;;;;;;7383424;19;20010;-69
2022/09/25 06:46:20;;;;;;;20.75;10.13;;;;;;;;;;7380951;19;20006;-68
2022/09/25 06:48:56;;;;;;;16.80;10.20;;;;;;;;;;7383584;19;20032;-69
2022/09/25 06:51:23;;;;;;;19.27;9.98;;;;;;;;;;7382581;19;20011;-70
2022/09/25 06:53:52;;;;;;;18.02;10.60;;;;;;;;;;7327765;19;20807;-69
2022/09/25 06:56:17;;;;;;;20.27;10.32;;;;;;;;;;7389363;19;20003;-71
2022/09/25 06:58:43;;;;;;;15.85;9.65;;;;;;;;;;7382549;19;19999;-71
2022/09/25 07:01:10;;;;;;;19.17;9.98;;;;;;;;;;7388474;19;20044;-71
2022/09/25 07:03:45;;;;;;;16.77;10.95;;;;;;;;;;7387593;19;20011;-69
2022/09/25 07:06:16;;;;;;;14.95;9.88;;;;;;;;;;7389382;19;20345;-70
2022/09/25 07:08:42;;;;;;;17.25;9.77;;;;;;;;;;7392622;19;20675;-71
2022/09/25 07:11:13;;;;;;;16.80;9.60;;;;;;;;;;7395057;19;20032;-71
2022/09/25 07:13:39;;;;;;;15.15;10.05;;;;;;;;;;7396550;19;20329;-71
2022/09/25 07:16:07;;;;;;;16.77;10.15;;;;;;;;;;7395268;19;19998;-71
2022/09/25 07:18:33;;;;;;;16.75;10.77;;;;;;;;;;7395899;19;20002;-71
2022/09/25 07:21:10;;;;;;;19.35;10.95;;;;;;;;;;7391799;19;19999;-70
2022/09/25 07:23:35;;;;;;;18.75;10.75;;;;;;;;;;7394357;19;20481;-71
2022/09/25 07:26:09;;;;;;;15.98;10.18;;;;;;;;;;7393451;19;19994;-70
2022/09/25 07:28:35;;;;;;;17.95;10.15;;;;;;;;;;7391027;19;19998;-70
2022/09/25 07:31:13;;;;;;;15.35;10.43;;;;;;;;;;7391318;19;20005;-70
2022/09/25 07:33:38;;;;;;;16.52;9.82;;;;;;;;;;7395980;19;19990;-72
2022/09/25 07:36:04;;;;;;;19.65;10.02;;;;;;;;;;7392361;19;20013;-69
2022/09/25 07:38:29;;;;;;;15.80;10.32;;;;;;;;;;7390909;19;20002;-69
2022/09/25 07:40:55;;;;;;;19.73;11.48;;;;;;;;;;7391588;19;20357;-70
2022/09/25 07:43:20;;;;;;;13.10;9.35;;;;;;;;;;7391614;19;20002;-72
2022/09/25 07:45:55;;;;;;;16.23;10.05;;;;;;;;;;7394197;19;20351;-71
2022/09/25 07:48:22;;;;;;;17.85;10.82;;;;;;;;;;7390111;19;20081;-71
2022/09/25 07:50:50;;;;;;;19.35;10.07;;;;;;;;;;7395046;19;20540;-69
2022/09/25 07:53:18;;;;;;;16.73;10.35;;;;;;;;;;7392797;19;19998;-71
2022/09/25 07:55:44;;;;;;;18.58;10.75;;;;;;;;;;7394770;19;20013;-71
2022/09/25 07:58:10;;;;;;;19.42;12.30;;;;;;;;;;7390754;19;20039;-72
2022/09/25 08:00:36;;;;;;;19.90;11.80;;;;;;;;;;7389839;19;19994;-70
2022/09/25 08:03:01;;;;;;;19.48;11.55;;;;;;;;;;7390958;19;20506;-71
2022/09/25 08:05:27;;;;;;;17.35;10.82;;;;;;;;;;7389661;19;20062;-71
2022/09/25 08:07:53;;;;;;;20.67;10.98;;;;;;;;;;7391163;19;20011;-70
2022/09/25 08:10:19;;;;;;;17.10;10.50;;;;;;;;;;7391514;19;20002;-69
2022/09/25 08:12:45;;;;;;;18.55;10.70;;;;;;;;;;7388786;19;20006;-69
2022/09/25 08:15:13;;;;;;;15.93;9.98;;;;;;;;;;7287185;19;20441;-67
2022/09/25 08:17:39;;;;;;;13.93;9.20;;;;;;;;;;7388955;19;20039;-69
2022/09/25 08:20:05;;;;;;;16.02;9.55;;;;;;;;;;7391327;19;20003;-68
2022/09/25 08:22:30;;;;;;;16.27;9.80;;;;;;;;;;7384031;19;20014;-69
2022/09/25 08:24:55;;;;;;;13.73;7.78;;;;;;;;;;7389492;19;20027;-69
2022/09/25 08:27:21;;;;;;;12.35;7.43;;;;;;;;;;7395164;19;20013;-69
2022/09/25 08:29:46;;;;;;;12.43;7.85;;;;;;;;;;7393426;19;20003;-69
2022/09/25 08:32:11;;;;;;;11.77;7.00;;;;;;;;;;7386511;19;20005;-69
2022/09/25 08:34:37;;;;;;;12.20;6.97;;;;;;;;;;7391315;19;19995;-69
2022/09/25 08:37:03;;;;;;;11.95;7.80;;;;;;;;;;7394513;19;20013;-70
2022/09/25 08:39:28;;;;;;;11.88;7.65;;;;;;;;;;7385810;19;20006;-68
2022/09/25 08:41:55;;;;;;;13.32;7.78;;;;;;;;;;7388547;19;20746;-71
2022/09/25 08:44:23;;;;;;;13.00;8.10;;;;;;;;;;7392357;19;20033;-71
2022/09/25 08:50:13;;;;;;;10.60;7.25;;;;;;;;;;7376479;19;20014;-69
2022/09/25 08:52:40;;;;;;;;;;;;;;;;;;7383104;19;20516;-70
2022/09/25 08:55:17;;;;;;;11.32;7.13;;;;;;;;;;7387102;19;20349;-70
2022/09/25 08:57:44;;;;;;;11.93;7.10;;;;;;;;;;7387351;19;19995;-69
2022/09/25 09:00:18;;;;;;;12.23;7.43;;;;;;;;;;7384981;19;20006;-69
2022/09/25 09:02:52;;;;;;;11.38;7.00;;;;;;;;;;7385389;19;20002;-70
2022/09/25 09:05:27;;;;;;;12.13;7.75;;;;;;;;;;7385302;19;19998;-70
2022/09/25 09:07:58;;;;;;;12.05;7.65;;;;;;;;;;7386878;19;20010;-68
2022/09/25 09:10:39;;;;;;;13.43;8.45;;;;;;;;;;7387579;19;20002;-67
2022/09/25 09:13:38;;;;;;;11.93;8.07;;;;;;;;;;7389209;19;20694;-69
2022/09/25 09:16:32;;;;;;;13.88;8.10;;;;;;;;;;7385748;19;20004;-71
2022/09/25 09:19:01;;;;;;;13.05;8.20;;;;;;;;;;7384986;19;20003;-69
2022/09/25 09:21:32;;;;;;;13.00;8.50;;;;;;;;;;7387024;19;20002;-70
2022/09/25 09:23:58;;;;;;;17.17;10.80;;;;;;;;;;7387858;19;20367;-70
2022/09/25 09:26:31;;;;;;;17.95;10.60;;;;;;;;;;7387024;19;20003;-70
2022/09/25 09:29:12;;;;;;;18.48;11.48;;;;;;;;;;7384705;19;20002;-68
2022/09/25 09:31:51;;;;;;;16.55;10.23;;;;;;;;;;7380713;19;20003;-70
2022/09/25 09:34:35;;;;;;;18.05;9.82;;;;;;;;;;7385665;19;20003;-69
2022/09/25 09:37:14;;;;;;;16.75;9.77;;;;;;;;;;7385755;19;20013;-69
2022/09/25 09:40:02;;;;;;;16.80;8.95;;;;;;;;;;7383952;19;20757;-70
2022/09/25 09:42:42;;;;;;;17.98;9.70;;;;;;;;;;7384578;19;20037;-69
2022/09/25 09:45:31;;;;;;;16.65;9.10;;;;;;;;;;7384920;19;20058;-69
2022/09/25 09:48:15;;;;;;;15.43;10.52;;;;;;;;;;7383253;19;20377;-70
2022/09/25 09:50:50;;;;;;;15.52;9.45;;;;;;;;;;7381450;19;20013;-71
2022/09/25 09:53:42;;;;;;;15.90;9.48;;;;;;;;;;7387223;19;20013;-69
2022/09/25 09:56:16;;;;;;;19.83;9.55;;;;;;;;;;7387280;19;20019;-70
2022/09/25 09:58:49;;;;;;;17.05;9.82;;;;;;;;;;7380925;19;20013;-70
2022/09/25 10:01:20;;;;;;;14.82;9.38;;;;;;;;;;7381205;19;20010;-69
2022/09/25 10:03:48;;;;;;;15.07;8.63;;;;;;;;;;7377721;19;19998;-68
2022/09/25 10:06:16;;;;;;;13.55;8.82;;;;;;;;;;7386556;19;19999;-70
2022/09/25 10:08:42;;;;;;;16.67;9.52;;;;;;;;;;7384762;19;20070;-69
2022/09/25 10:11:17;;;;;;;14.15;9.30;;;;;;;;;;7386696;19;20003;-72
2022/09/25 10:13:43;;;;;;;13.00;8.75;;;;;;;;;;7383471;19;20002;-69
2022/09/25 10:16:18;;;;;;;13.90;8.82;;;;;;;;;;7387663;19;20342;-69
2022/09/25 10:18:47;;;;;;;15.60;8.93;;;;;;;;;;7381470;19;20022;-69
2022/09/25 10:21:24;;;;;;;17.55;9.07;;;;;;;;;;7387906;19;20010;-69
2022/09/25 10:24:01;;;;;;;15.13;9.93;;;;;;;;;;7383147;19;20007;-68
2022/09/25 10:26:35;;;;;;;18.38;11.45;;;;;;;;;;7386043;19;20091;-68
2022/09/25 10:29:25;;;;;;;18.88;11.48;;;;;;;;;;7392655;19;20006;-69
2022/09/25 10:32:02;;;;;;;16.33;10.52;;;;;;;;;;7393704;19;20010;-68
2022/09/25 10:34:28;;;;;;;22.17;11.02;;;;;;;;;;7391223;19;20007;-71
2022/09/25 10:36:54;;;;;;;16.35;10.68;;;;;;;;;;7392735;19;20006;-68
2022/09/25 10:39:34;;;;;;;25.02;14.70;;;;;;;;;;7392302;19;20095;-68
2022/09/25 10:42:07;;;;;;;24.23;12.30;;;;;;;;;;7392812;19;20013;-70
2022/09/25 10:44:33;;;;;;;19.52;12.20;;;;;;;;;;7390763;19;20007;-71
2022/09/25 10:50:25;;;;;;;18.60;11.15;;;;;;;;;;7391352;19;20133;-70
2022/09/25 10:53:00;;;;;;;16.33;11.05;;;;;;;;;;7387934;19;20070;-69
2022/09/25 10:55:40;;;;;;;19.10;11.10;;;;;;;;;;7391662;19;20007;-72
2022/09/25 10:58:23;;;;;;;20.98;12.68;;;;;;;;;;7393015;19;20003;-71
2022/09/25 11:00:48;;;;;;;17.83;11.20;;;;;;;;;;7392650;19;20062;-71
2022/09/25 11:03:34;;;;;;;20.17;11.93;;;;;;;;;;7390856;19;20023;-72
2022/09/25 11:06:17;;;;;;;19.45;11.77;;;;;;;;;;7387903;19;20612;-71
2022/09/25 11:08:44;;;;;;;31.67;17.85;;;;;;;;;;7391844;19;20010;-71
2022/09/25 11:11:11;;;;;;;20.13;12.70;;;;;;;;;;7390724;19;20008;-72
2022/09/25 11:13:45;;;;;;;21.65;11.75;;;;;;;;;;7391293;19;20007;-71
2022/09/25 11:16:11;;;;;;;13.15;6.95;;;;;;;;;;7390310;19;20010;-71
2022/09/25 11:18:44;;;;;;;10.80;6.38;;;;;;;;;;7391368;19;20003;-71
2022/09/25 11:21:20;;;;;;;9.25;6.35;;;;;;;;;;7391396;19;20036;-72
2022/09/25 11:24:16;;;;;;;13.55;6.50;;;;;;;;;;7392982;19;20005;-69
2022/09/25 11:27:06;;;;;;;11.05;6.47;;;;;;;;;;7393220;19;20435;-69
2022/09/25 11:29:43;;;;;;;10.73;6.32;;;;;;;;;;7394177;19;20007;-71
2022/09/25 11:32:22;;;;;;;8.15;5.65;;;;;;;;;;7390592;19;20025;-70
2022/09/25 11:34:57;;;;;;;20.13;10.75;;;;;;;;;;7388297;19;20011;-71
2022/09/25 11:37:25;;;;;;;10.63;5.93;;;;;;;;;;7391270;19;20074;-70
2022/09/25 11:43:05;;;;;;;11.02;6.13;;;;;;;;;;7390549;19;20027;-72
2022/09/25 11:45:36;;;;;;;8.02;5.32;;;;;;;;;;7391637;19;19998;-71
2022/09/25 11:48:20;;;;;;;8.43;4.78;;;;;;;;;;7391551;19;20010;-72
2022/09/25 11:51:06;;;;;;;8.40;4.68;;;;;;;;;;7390722;19;19994;-71
2022/09/25 11:54:06;;;;;;;8.95;4.85;;;;;;;;;;7390420;19;20003;-71
2022/09/25 11:56:45;;;;;;;10.00;4.65;;;;;;;;;;7389845;19;20006;-72
2022/09/25 11:59:10;;;;;;;6.72;4.40;;;;;;;;;;7385541;19;20036;-70
2022/09/25 12:01:56;;;;;;;9.17;4.60;;;;;;;;;;7386538;19;20387;-71
2022/09/25 12:04:54;;;;;;;9.00;4.30;;;;;;;;;;7384309;19;20280;-71
2022/09/25 12:07:26;;;;;;;8.75;4.35;;;;;;;;;;7387619;19;20006;-72
2022/09/25 12:10:38;;;;;;;9.75;4.50;;;;;;;;;;7384160;19;20005;-72
2022/09/25 12:13:44;;;;;;;9.20;4.10;;;;;;;;;;7383190;19;20014;-71
2022/09/25 12:16:38;;;;;;;8.63;4.30;;;;;;;;;;7389020;19;20006;-69
2022/09/25 12:19:10;;;;;;;7.22;4.05;;;;;;;;;;7389027;19;20003;-69
2022/09/25 12:21:47;;;;;;;7.85;3.95;;;;;;;;;;7388568;19;19998;-68
2022/09/25 12:24:22;;;;;;;14.05;7.40;;;;;;;;;;7389183;19;20474;-70
2022/09/25 12:27:10;;;;;;;7.85;4.45;;;;;;;;;;7389103;19;20027;-70
2022/09/25 12:30:05;;;;;;;8.52;4.63;;;;;;;;;;7387258;19;20364;-70
2022/09/25 12:32:40;;;;;;;8.50;4.60;;;;;;;;;;7386381;19;20014;-70
2022/09/25 12:35:26;;;;;;;7.35;4.55;;;;;;;;;;7386330;19;20070;-71
2022/09/25 12:38:02;;;;;;;12.68;4.55;;;;;;;;;;7386792;19;20010;-70
2022/09/25 12:40:37;;;;;;;8.98;4.30;;;;;;;;;;7386794;19;20027;-70
2022/09/25 12:43:03;;;;;;;10.35;4.80;;;;;;;;;;7389206;19;20045;-68
2022/09/25 12:45:46;;;;;;;7.55;4.38;;;;;;;;;;7387612;19;20016;-70
2022/09/25 12:48:20;;;;;;;7.60;4.07;;;;;;;;;;7386054;19;20047;-70
2022/09/25 12:50:56;;;;;;;7.10;3.47;;;;;;;;;;7387461;19;20013;-70
2022/09/25 12:53:33;;;;;;;8.88;3.83;;;;;;;;;;7389927;19;20006;-71
2022/09/25 12:56:08;;;;;;;7.45;3.70;;;;;;;;;;7389512;19;20341;-69
2022/09/25 12:58:59;;;;;;;6.82;3.28;;;;;;;;;;7387685;19;20014;-72
2022/09/25 13:01:45;;;;;;;6.57;3.58;;;;;;;;;;7387278;19;20003;-70
2022/09/25 13:04:15;;;;;;;6.22;3.45;;;;;;;;;;7388884;19;20023;-71
2022/09/25 13:06:51;;;;;;;7.15;2.83;;;;;;;;;;7387819;19;20468;-70
2022/09/25 13:09:34;;;;;;;4.85;2.58;;;;;;;;;;7391095;19;20464;-72
2022/09/25 13:12:07;;;;;;;4.35;2.47;;;;;;;;;;7390164;19;20038;-72
2022/09/25 13:14:38;;;;;;;4.90;2.33;;;;;;;;;;7387283;19;20038;-72
2022/09/25 13:17:05;;;;;;;4.22;2.65;;;;;;;;;;7388180;19;20014;-71
2022/09/25 13:19:34;;;;;;;4.60;2.33;;;;;;;;;;7385976;19;20003;-71
2022/09/25 13:22:12;;;;;;;3.95;2.17;;;;;;;;;;7387616;19;20006;-71
2022/09/25 13:24:50;;;;;;;4.32;2.15;;;;;;;;;;7386930;19;20006;-70
2022/09/25 13:27:21;;;;;;;3.97;2.33;;;;;;;;;;7383342;19;20041;-72
2022/09/25 13:29:54;;;;;;;3.88;2.00;;;;;;;;;;7385871;19;20040;-71
2022/09/25 13:32:22;;;;;;;6.05;2.13;;;;;;;;;;7387072;19;20010;-72
2022/09/25 13:34:52;;;;;;;4.57;2.15;;;;;;;;;;7385178;19;20030;-72
2022/09/25 13:37:25;;;;;;;4.65;2.30;;;;;;;;;;7387760;19;20017;-70
2022/09/25 13:42:45;;;;;;;4.50;2.42;;;;;;;;;;7385918;19;20022;-71
2022/09/25 13:45:31;;;;;;;4.10;2.20;;;;;;;;;;7387584;19;20384;-71
2022/09/25 13:48:08;;;;;;;4.70;2.50;;;;;;;;;;7383326;19;20002;-70
2022/09/25 13:50:39;;;;;;;4.53;2.50;;;;;;;;;;7386714;19;20007;-70
2022/09/25 13:53:17;;;;;;;4.22;1.92;;;;;;;;;;7385253;19;20012;-70
2022/09/25 13:56:02;;;;;;;8.45;2.50;;;;;;;;;;7384127;19;20006;-71
2022/09/25 13:58:31;;;;;;;6.03;2.60;;;;;;;;;;7383847;19;20003;-71
2022/09/25 14:00:58;;;;;;;5.22;2.33;;;;;;;;;;7386702;19;20027;-71
2022/09/25 14:03:30;;;;;;;3.83;2.20;;;;;;;;;;7383162;19;20014;-72
2022/09/25 14:05:57;;;;;;;4.45;2.35;;;;;;;;;;7381687;19;20047;-72
2022/09/25 14:08:23;;;;;;;5.57;2.20;;;;;;;;;;7380764;19;20170;-71
2022/09/25 14:10:53;;;;;;;4.22;2.25;;;;;;;;;;7379053;19;20702;-69
2022/09/25 14:13:24;;;;;;;5.85;2.78;;;;;;;;;;7381161;19;20009;-70
2022/09/25 14:15:50;;;;;;;7.97;2.35;;;;;;;;;;7379506;19;20006;-70
2022/09/25 14:18:21;;;;;;;6.88;2.40;;;;;;;;;;7382093;19;19998;-71
2022/09/25 14:20:50;;;;;;;4.80;2.10;;;;;;;;;;7377921;19;20007;-71
2022/09/25 14:23:19;;;;;;;4.82;2.35;;;;;;;;;;7380295;19;20010;-73
2022/09/25 14:25:45;;;;;;;5.90;2.47;;;;;;;;;;7383750;19;19994;-72
2022/09/25 14:28:24;;;;;;;4.80;2.50;;;;;;;;;;7386528;19;20005;-71
2022/09/25 14:31:13;;;;;;;6.63;2.30;;;;;;;;;;7384671;19;20006;-73
2022/09/25 14:33:50;;;;;;;8.88;2.45;;;;;;;;;;7383996;19;20006;-72
2022/09/25 14:36:40;;;;;;;6.00;2.92;;;;;;;;;;7386142;19;20308;-72
2022/09/25 14:39:05;;;;;;;5.53;2.17;;;;;;;;;;7386893;19;20109;-73
2022/09/25 14:42:03;;;;;;;6.50;2.70;;;;;;;;;;7383578;19;20007;-71
2022/09/25 14:44:37;;;;;;;5.47;2.42;;;;;;;;;;7385663;19;20271;-72
2022/09/25 14:47:03;;;;;;;3.60;2.30;;;;;;;;;;7381646;19;20006;-71
2022/09/25 14:49:36;;;;;;;6.60;2.20;;;;;;;;;;7384297;19;19998;-72
2022/09/25 14:52:07;;;;;;;6.32;2.50;;;;;;;;;;7383082;19;20460;-72
2022/09/25 14:54:36;;;;;;;6.85;2.15;;;;;;;;;;7383546;19;20420;-71
2022/09/25 14:57:04;;;;;;;5.00;2.50;;;;;;;;;;7385623;19;20013;-72
2022/09/25 14:59:41;;;;;;;4.88;2.50;;;;;;;;;;7384052;19;19998;-73
2022/09/25 15:02:40;;;;;;;4.93;2.50;;;;;;;;;;7383159;19;20715;-73
2022/09/25 15:05:16;;;;;;;6.20;2.65;;;;;;;;;;7381198;19;20010;-70
2022/09/25 15:07:43;;;;;;;3.72;2.10;;;;;;;;;;7382434;19;19998;-69
2022/09/25 15:10:23;;;;;;;5.25;2.53;;;;;;;;;;7384663;19;19999;-70
2022/09/25 15:12:48;;;;;;;5.65;2.28;;;;;;;;;;7379407;19;20618;-71
2022/09/25 15:15:15;;;;;;;6.82;3.10;;;;;;;;;;7389445;19;20013;-72